Augusto C. Sandino (Managua) International Airport
MNMG : now visible

Airfield :











YOU CAN JOIN US ON...

 
LOGIN :

Register | Disclaimer

   EN    FR    IT 

 









Legend :    VFR   Marginal VFR   IFR   Intensive IFR   Very Intensive IFR
Visi :
Ceiling :
>= 8 km
>= 3000ft
5 to 8 km
1000 to 3000 ft
1500m to 5 km
500 to 1000 ft
800 to 1500m
200 to 500 ft
< 800m
< 200 ft
Symbols :   Thunderstorms  Fog  Heavy snow  Heavy precipitations  Wind > 20 kt






- Airport Elevation : 194 ft
- IATA code : MGA


MNMG - Augusto C. Sandino (Managua) International

CURRENT METAR :
  • 212100Z 08016KT 9999 FEW024 33/21 Q1010 A2983 NOSIG

EXPIRED METARs :
  • 212000Z 06012KT 9999 SCT024 33/20 Q1011 A2987 NOSIG
  • 211900Z 09014KT 9999 FEW024 33/20 Q1012 A2989 NOSIG

TAF MNMG
Valid from the 21 at 18:00 until the 22 at 18:00 UTC


211530Z 2118/2218 06012G22KT 9999 SCT020
BECMG 2204/2206 11010KT
BECMG 2214/2216 07018G32KT



MET'MAP, your aeronautical weather chart ! - Copyright ORBIFLY December 2007 - Disclaimer

ORBIFLY MET'MAP TEAM :

Programming & Development : Alexandra Zaïnal
Concept & original design : Baudouin d'Aumeries
Assistance for programming : Marc-Olivier Méhu
Technical & hardware support : Manuel Goepfert

Contact : metmap@orbifly.com




SOURCES & CREDITS :

   NOAA       Earth
Advisory